sensor_id;sensor_type;location;lat;lon;timestamp;pressure;altitude;pressure_sealevel;temperature;humidity
19023;BME280;35226;48.606;8.858;2022-12-10T00:01:09;94943.22;;;0.91;100.00
19023;BME280;35226;48.606;8.858;2022-12-10T00:03:35;94943.94;;;0.95;100.00
19023;BME280;35226;48.606;8.858;2022-12-10T00:06:02;94943.09;;;0.98;100.00
19023;BME280;35226;48.606;8.858;2022-12-10T00:08:28;94945.38;;;1.00;100.00
19023;BME280;35226;48.606;8.858;2022-12-10T00:10:54;94952.84;;;0.96;100.00
19023;BME280;35226;48.606;8.858;2022-12-10T00:13:20;94951.72;;;0.93;100.00
19023;BME280;35226;48.606;8.858;2022-12-10T00:15:45;94948.97;;;0.97;100.00
19023;BME280;35226;48.606;8.858;2022-12-10T00:18:10;94949.00;;;0.93;100.00
19023;BME280;35226;48.606;8.858;2022-12-10T00:20:37;94957.03;;;1.00;100.00
19023;BME280;35226;48.606;8.858;2022-12-10T00:23:02;94951.38;;;0.91;100.00
19023;BME280;35226;48.606;8.858;2022-12-10T00:25:28;94950.22;;;0.89;100.00
19023;BME280;35226;48.606;8.858;2022-12-10T00:27:54;94950.94;;;0.93;100.00
19023;BME280;35226;48.606;8.858;2022-12-10T00:30:19;94946.25;;;0.97;100.00
19023;BME280;35226;48.606;8.858;2022-12-10T00:32:44;94948.09;;;1.00;100.00
19023;BME280;35226;48.606;8.858;2022-12-10T00:35:10;94949.25;;;1.02;100.00
19023;BME280;35226;48.606;8.858;2022-12-10T00:37:35;94945.34;;;1.03;100.00
19023;BME280;35226;48.606;8.858;2022-12-10T00:40:01;94940.34;;;0.98;100.00
19023;BME280;35226;48.606;8.858;2022-12-10T00:42:27;94948.28;;;0.89;100.00
19023;BME280;35226;48.606;8.858;2022-12-10T00:44:52;94950.53;;;0.94;100.00
19023;BME280;35226;48.606;8.858;2022-12-10T00:47:17;94955.16;;;0.97;100.00
19023;BME280;35226;48.606;8.858;2022-12-10T00:49:43;94948.28;;;0.89;100.00
19023;BME280;35226;48.606;8.858;2022-12-10T00:52:08;94959.53;;;0.91;100.00
19023;BME280;35226;48.606;8.858;2022-12-10T00:54:34;94954.81;;;0.95;100.00
19023;BME280;35226;48.606;8.858;2022-12-10T00:56:59;94967.69;;;0.91;100.00
19023;BME280;35226;48.606;8.858;2022-12-10T00:59:25;94968.69;;;1.01;100.00
19023;BME280;35226;48.606;8.858;2022-12-10T01:01:50;94967.50;;;1.02;100.00
19023;BME280;35226;48.606;8.858;2022-12-10T01:04:19;94977.63;;;1.01;100.00
19023;BME280;35226;48.606;8.858;2022-12-10T01:06:50;94966.03;;;0.97;100.00
19023;BME280;35226;48.606;8.858;2022-12-10T01:09:19;94983.16;;;0.94;100.00
19023;BME280;35226;48.606;8.858;2022-12-10T01:11:47;94976.03;;;1.04;100.00
19023;BME280;35226;48.606;8.858;2022-12-10T01:14:17;94983.13;;;0.98;100.00
19023;BME280;35226;48.606;8.858;2022-12-10T01:16:46;94977.78;;;0.91;100.00
19023;BME280;35226;48.606;8.858;2022-12-10T01:19:12;94987.03;;;0.97;100.00
19023;BME280;35226;48.606;8.858;2022-12-10T01:21:37;94982.81;;;0.92;100.00
19023;BME280;35226;48.606;8.858;2022-12-10T01:24:03;94983.47;;;1.00;100.00
19023;BME280;35226;48.606;8.858;2022-12-10T01:26:31;94996.66;;;1.01;100.00
19023;BME280;35226;48.606;8.858;2022-12-10T01:28:58;94991.75;;;0.93;100.00
19023;BME280;35226;48.606;8.858;2022-12-10T01:31:29;94991.44;;;0.87;100.00
19023;BME280;35226;48.606;8.858;2022-12-10T01:33:55;95000.31;;;0.91;100.00
19023;BME280;35226;48.606;8.858;2022-12-10T01:36:25;94991.69;;;0.96;100.00
19023;BME280;35226;48.606;8.858;2022-12-10T01:38:51;94991.28;;;0.98;100.00
19023;BME280;35226;48.606;8.858;2022-12-10T01:41:23;94992.50;;;0.93;100.00
19023;BME280;35226;48.606;8.858;2022-12-10T01:43:58;95002.72;;;0.86;100.00
19023;BME280;35226;48.606;8.858;2022-12-10T01:46:27;95001.44;;;0.94;100.00
19023;BME280;35226;48.606;8.858;2022-12-10T01:48:55;95008.97;;;0.83;100.00
19023;BME280;35226;48.606;8.858;2022-12-10T01:51:22;95002.72;;;0.86;100.00
19023;BME280;35226;48.606;8.858;2022-12-10T01:53:49;95002.41;;;0.80;100.00
19023;BME280;35226;48.606;8.858;2022-12-10T01:56:17;95001.72;;;0.76;100.00
19023;BME280;35226;48.606;8.858;2022-12-10T01:58:44;95006.84;;;0.70;100.00
19023;BME280;35226;48.606;8.858;2022-12-10T02:06:59;95014.00;;;0.84;100.00
19023;BME280;35226;48.606;8.858;2022-12-10T02:09:33;95014.41;;;0.83;100.00
19023;BME280;35226;48.606;8.858;2022-12-10T02:17:08;94998.94;;;0.80;100.00
19023;BME280;35226;48.606;8.858;2022-12-10T02:22:44;94990.47;;;0.74;100.00
19023;BME280;35226;48.606;8.858;2022-12-10T02:25:12;94991.63;;;0.77;100.00
19023;BME280;35226;48.606;8.858;2022-12-10T02:30:18;94976.31;;;0.86;100.00
19023;BME280;35226;48.606;8.858;2022-12-10T02:32:45;94974.41;;;0.83;100.00
19023;BME280;35226;48.606;8.858;2022-12-10T02:35:21;94984.06;;;0.88;100.00
19023;BME280;35226;48.606;8.858;2022-12-10T02:37:51;94980.97;;;0.86;100.00
19023;BME280;35226;48.606;8.858;2022-12-10T02:40:23;94995.28;;;0.90;100.00
19023;BME280;35226;48.606;8.858;2022-12-10T02:42:52;94993.81;;;0.85;100.00
19023;BME280;35226;48.606;8.858;2022-12-10T02:45:22;94989.84;;;0.90;100.00
19023;BME280;35226;48.606;8.858;2022-12-10T02:47:50;94995.34;;;0.86;100.00
19023;BME280;35226;48.606;8.858;2022-12-10T02:50:19;94993.84;;;0.82;100.00
19023;BME280;35226;48.606;8.858;2022-12-10T02:52:48;95004.19;;;0.90;100.00
19023;BME280;35226;48.606;8.858;2022-12-10T02:55:14;95005.44;;;0.86;100.00
19023;BME280;35226;48.606;8.858;2022-12-10T02:58:02;94989.91;;;0.86;100.00
19023;BME280;35226;48.606;8.858;2022-12-10T03:00:37;94983.28;;;0.87;100.00
19023;BME280;35226;48.606;8.858;2022-12-10T03:03:25;94964.97;;;0.91;100.00
19023;BME280;35226;48.606;8.858;2022-12-10T03:06:05;94964.56;;;0.93;100.00
19023;BME280;35226;48.606;8.858;2022-12-10T03:08:45;94955.63;;;0.92;100.00
19023;BME280;35226;48.606;8.858;2022-12-10T03:11:18;94942.91;;;0.86;100.00
19023;BME280;35226;48.606;8.858;2022-12-10T03:13:54;94946.69;;;0.92;100.00
19023;BME280;35226;48.606;8.858;2022-12-10T03:16:23;94952.13;;;0.92;100.00
19023;BME280;35226;48.606;8.858;2022-12-10T03:18:55;94969.25;;;0.89;100.00
19023;BME280;35226;48.606;8.858;2022-12-10T03:21:22;94986.81;;;0.84;100.00
19023;BME280;35226;48.606;8.858;2022-12-10T03:23:50;94979.72;;;0.90;100.00
19023;BME280;35226;48.606;8.858;2022-12-10T03:26:18;94985.56;;;0.89;100.00
19023;BME280;35226;48.606;8.858;2022-12-10T03:28:54;94998.84;;;0.87;100.00
19023;BME280;35226;48.606;8.858;2022-12-10T03:31:21;94990.59;;;0.90;100.00
19023;BME280;35226;48.606;8.858;2022-12-10T03:33:48;94999.53;;;0.91;100.00
19023;BME280;35226;48.606;8.858;2022-12-10T03:36:15;94989.94;;;0.83;100.00
19023;BME280;35226;48.606;8.858;2022-12-10T03:38:42;94985.28;;;0.83;100.00
19023;BME280;35226;48.606;8.858;2022-12-10T03:41:08;94981.28;;;0.91;100.00
19023;BME280;35226;48.606;8.858;2022-12-10T03:43:33;94976.78;;;0.81;100.00
19023;BME280;35226;48.606;8.858;2022-12-10T03:45:59;94974.69;;;0.89;100.00
19023;BME280;35226;48.606;8.858;2022-12-10T03:48:24;94985.34;;;0.80;100.00
19023;BME280;35226;48.606;8.858;2022-12-10T03:50:50;94975.19;;;0.84;100.00
19023;BME280;35226;48.606;8.858;2022-12-10T03:53:15;94987.59;;;0.85;100.00
19023;BME280;35226;48.606;8.858;2022-12-10T03:55:41;94986.72;;;0.91;100.00
19023;BME280;35226;48.606;8.858;2022-12-10T03:58:06;94996.44;;;0.89;100.00
19023;BME280;35226;48.606;8.858;2022-12-10T04:00:32;94991.94;;;0.79;100.00
19023;BME280;35226;48.606;8.858;2022-12-10T04:02:57;94997.34;;;0.82;100.00
19023;BME280;35226;48.606;8.858;2022-12-10T04:05:23;95002.25;;;0.91;100.00
19023;BME280;35226;48.606;8.858;2022-12-10T04:07:49;95004.31;;;0.83;100.00
19023;BME280;35226;48.606;8.858;2022-12-10T04:10:14;95003.97;;;0.81;100.00
19023;BME280;35226;48.606;8.858;2022-12-10T04:12:40;95010.97;;;0.79;100.00
19023;BME280;35226;48.606;8.858;2022-12-10T04:15:06;95000.88;;;0.79;100.00
19023;BME280;35226;48.606;8.858;2022-12-10T04:17:51;95010.22;;;0.78;100.00
19023;BME280;35226;48.606;8.858;2022-12-10T04:20:17;95013.34;;;0.77;100.00
19023;BME280;35226;48.606;8.858;2022-12-10T04:23:01;95017.91;;;0.83;100.00
19023;BME280;35226;48.606;8.858;2022-12-10T04:25:45;95018.38;;;0.78;100.00
19023;BME280;35226;48.606;8.858;2022-12-10T04:28:29;95022.28;;;0.77;100.00
19023;BME280;35226;48.606;8.858;2022-12-10T04:30:54;95019.50;;;0.81;100.00
19023;BME280;35226;48.606;8.858;2022-12-10T04:33:20;95019.50;;;0.81;100.00
19023;BME280;35226;48.606;8.858;2022-12-10T04:35:45;95016.47;;;0.75;100.00
19023;BME280;35226;48.606;8.858;2022-12-10T04:38:11;95018.03;;;0.76;100.00
19023;BME280;35226;48.606;8.858;2022-12-10T04:40:37;95015.34;;;0.72;100.00
19023;BME280;35226;48.606;8.858;2022-12-10T04:43:02;95014.22;;;0.70;100.00
19023;BME280;35226;48.606;8.858;2022-12-10T04:45:28;95011.81;;;0.76;100.00
19023;BME280;35226;48.606;8.858;2022-12-10T04:47:53;95012.50;;;0.80;100.00
19023;BME280;35226;48.606;8.858;2022-12-10T04:50:18;95014.47;;;0.79;100.00
19023;BME280;35226;48.606;8.858;2022-12-10T04:52:44;95012.19;;;0.78;100.00
19023;BME280;35226;48.606;8.858;2022-12-10T04:55:09;95012.25;;;0.70;100.00
19023;BME280;35226;48.606;8.858;2022-12-10T04:57:35;95009.88;;;0.76;100.00
19023;BME280;35226;48.606;8.858;2022-12-10T05:00:00;95005.63;;;0.75;100.00
19023;BME280;35226;48.606;8.858;2022-12-10T05:02:26;95004.78;;;0.78;100.00
19023;BME280;35226;48.606;8.858;2022-12-10T05:04:51;94997.75;;;0.81;100.00
19023;BME280;35226;48.606;8.858;2022-12-10T05:07:16;94995.03;;;0.81;100.00
19023;BME280;35226;48.606;8.858;2022-12-10T05:09:42;94999.00;;;0.76;100.00
19023;BME280;35226;48.606;8.858;2022-12-10T05:12:07;95009.53;;;0.70;100.00
19023;BME280;35226;48.606;8.858;2022-12-10T05:14:33;95003.78;;;0.68;100.00
19023;BME280;35226;48.606;8.858;2022-12-10T05:16:58;95010.63;;;0.77;100.00
19023;BME280;35226;48.606;8.858;2022-12-10T05:19:24;95002.47;;;0.77;100.00
19023;BME280;35226;48.606;8.858;2022-12-10T05:21:52;95001.81;;;0.69;100.00
19023;BME280;35226;48.606;8.858;2022-12-10T05:24:36;95010.22;;;0.78;100.00
19023;BME280;35226;48.606;8.858;2022-12-10T05:27:03;95004.47;;;0.72;100.00
19023;BME280;35226;48.606;8.858;2022-12-10T05:29:28;95011.03;;;0.75;100.00
19023;BME280;35226;48.606;8.858;2022-12-10T05:31:54;95008.84;;;0.66;100.00
19023;BME280;35226;48.606;8.858;2022-12-10T05:34:19;95008.84;;;0.66;100.00
19023;BME280;35226;48.606;8.858;2022-12-10T05:36:45;95010.78;;;0.66;100.00
19023;BME280;35226;48.606;8.858;2022-12-10T05:39:10;95006.78;;;0.74;100.00
19023;BME280;35226;48.606;8.858;2022-12-10T05:41:37;95010.28;;;0.74;100.00
19023;BME280;35226;48.606;8.858;2022-12-10T05:44:04;95010.63;;;0.77;100.00
19023;BME280;35226;48.606;8.858;2022-12-10T05:46:31;95005.66;;;0.71;100.00
19023;BME280;35226;48.606;8.858;2022-12-10T05:48:59;95015.66;;;0.78;100.00
19023;BME280;35226;48.606;8.858;2022-12-10T05:51:27;95026.88;;;0.80;100.00
19023;BME280;35226;48.606;8.858;2022-12-10T05:53:54;95020.41;;;0.70;100.00
19023;BME280;35226;48.606;8.858;2022-12-10T05:56:22;95018.44;;;0.74;100.00
19023;BME280;35226;48.606;8.858;2022-12-10T05:58:49;95012.66;;;0.69;100.00
19023;BME280;35226;48.606;8.858;2022-12-10T06:01:17;95012.25;;;0.70;100.00
19023;BME280;35226;48.606;8.858;2022-12-10T06:03:44;95019.00;;;0.62;100.00
19023;BME280;35226;48.606;8.858;2022-12-10T06:06:10;95026.88;;;1.07;100.00
19023;BME280;35226;48.606;8.858;2022-12-10T06:08:37;95024.97;;;1.04;100.00
19023;BME280;35226;48.606;8.858;2022-12-10T06:11:07;95030.41;;;1.04;100.00
19023;BME280;35226;48.606;8.858;2022-12-10T06:13:33;95031.94;;;1.05;100.00
19023;BME280;35226;48.606;8.858;2022-12-10T06:15:59;95031.06;;;1.11;100.00
19023;BME280;35226;48.606;8.858;2022-12-10T06:18:24;95039.75;;;1.03;100.00
19023;BME280;35226;48.606;8.858;2022-12-10T06:20:50;95044.28;;;1.09;100.00
19023;BME280;35226;48.606;8.858;2022-12-10T06:23:16;95044.38;;;1.06;100.00
19023;BME280;35226;48.606;8.858;2022-12-10T06:25:41;95050.63;;;1.03;100.00
19023;BME280;35226;48.606;8.858;2022-12-10T06:28:07;95056.44;;;1.05;100.00
19023;BME280;35226;48.606;8.858;2022-12-10T06:30:33;95053.75;;;1.01;100.00
19023;BME280;35226;48.606;8.858;2022-12-10T06:32:59;95059.97;;;1.02;100.00
19023;BME280;35226;48.606;8.858;2022-12-10T06:35:25;95069.66;;;1.03;100.00
19023;BME280;35226;48.606;8.858;2022-12-10T06:37:51;95075.50;;;1.01;100.00
19023;BME280;35226;48.606;8.858;2022-12-10T06:40:17;95073.16;;;1.03;100.00
19023;BME280;35226;48.606;8.858;2022-12-10T06:42:42;95063.03;;;1.04;100.00
19023;BME280;35226;48.606;8.858;2022-12-10T06:45:09;95076.28;;;1.02;100.00
19023;BME280;35226;48.606;8.858;2022-12-10T06:47:34;95073.13;;;1.07;100.00
19023;BME280;35226;48.606;8.858;2022-12-10T06:50:00;95077.41;;;1.04;100.00
19023;BME280;35226;48.606;8.858;2022-12-10T06:52:26;95075.16;;;0.99;100.00
19023;BME280;35226;48.606;8.858;2022-12-10T06:54:51;95075.47;;;1.05;100.00
19023;BME280;35226;48.606;8.858;2022-12-10T06:57:19;95074.44;;;0.95;100.00
19023;BME280;35226;48.606;8.858;2022-12-10T06:59:44;95083.38;;;0.96;100.00
19023;BME280;35226;48.606;8.858;2022-12-10T07:02:09;95081.50;;;0.89;100.00
19023;BME280;35226;48.606;8.858;2022-12-10T07:04:35;95084.56;;;0.95;100.00
19023;BME280;35226;48.606;8.858;2022-12-10T07:07:00;95090.44;;;0.90;100.00
19023;BME280;35226;48.606;8.858;2022-12-10T07:09:26;95089.38;;;0.84;100.00
19023;BME280;35226;48.606;8.858;2022-12-10T07:11:51;95102.19;;;0.53;100.00
19023;BME280;35226;48.606;8.858;2022-12-10T07:14:17;95099.50;;;0.80;100.00
19023;BME280;35226;48.606;8.858;2022-12-10T07:16:43;95095.63;;;0.81;100.00
19023;BME280;35226;48.606;8.858;2022-12-10T07:19:11;95093.22;;;0.86;100.00
19023;BME280;35226;48.606;8.858;2022-12-10T07:21:39;95085.72;;;0.67;100.00
19023;BME280;35226;48.606;8.858;2022-12-10T07:24:17;95090.69;;;0.99;100.00
19023;BME280;35226;48.606;8.858;2022-12-10T07:26:44;95094.28;;;0.65;100.00
19023;BME280;35226;48.606;8.858;2022-12-10T07:29:16;95098.94;;;0.34;100.00
19023;BME280;35226;48.606;8.858;2022-12-10T07:31:42;95100.84;;;0.38;100.00
19023;BME280;35226;48.606;8.858;2022-12-10T07:34:11;95113.25;;;0.39;100.00
19023;BME280;35226;48.606;8.858;2022-12-10T07:36:37;95112.03;;;0.43;100.00
19023;BME280;35226;48.606;8.858;2022-12-10T07:39:06;95118.22;;;0.44;100.00
19023;BME280;35226;48.606;8.858;2022-12-10T07:41:31;95120.97;;;1.01;100.00
19023;BME280;35226;48.606;8.858;2022-12-10T07:43:57;95126.25;;;0.54;100.00
19023;BME280;35226;48.606;8.858;2022-12-10T07:46:25;95119.56;;;0.89;100.00
19023;BME280;35226;48.606;8.858;2022-12-10T07:48:51;95125.75;;;0.93;100.00
19023;BME280;35226;48.606;8.858;2022-12-10T07:51:18;95129.75;;;0.85;100.00
19023;BME280;35226;48.606;8.858;2022-12-10T07:53:45;95132.34;;;0.92;100.00
19023;BME280;35226;48.606;8.858;2022-12-10T07:56:10;95126.09;;;0.95;100.00
19023;BME280;35226;48.606;8.858;2022-12-10T07:58:36;95130.31;;;1.00;100.00
19023;BME280;35226;48.606;8.858;2022-12-10T08:01:07;95124.88;;;1.00;100.00
19023;BME280;35226;48.606;8.858;2022-12-10T08:03:32;95127.25;;;0.98;100.00
19023;BME280;35226;48.606;8.858;2022-12-10T08:06:07;95119.41;;;0.43;100.00
19023;BME280;35226;48.606;8.858;2022-12-10T08:08:35;95122.09;;;0.46;100.00
19023;BME280;35226;48.606;8.858;2022-12-10T08:11:02;95120.53;;;0.45;100.00
19023;BME280;35226;48.606;8.858;2022-12-10T08:13:28;95123.25;;;0.45;100.00
19023;BME280;35226;48.606;8.858;2022-12-10T08:16:00;95127.69;;;0.93;100.00
19023;BME280;35226;48.606;8.858;2022-12-10T08:18:25;95132.25;;;0.69;100.00
19023;BME280;35226;48.606;8.858;2022-12-10T08:20:51;95128.47;;;0.93;100.00
19023;BME280;35226;48.606;8.858;2022-12-10T08:23:16;95132.69;;;0.98;100.00
19023;BME280;35226;48.606;8.858;2022-12-10T08:25:42;95146.22;;;1.01;100.00
19023;BME280;35226;48.606;8.858;2022-12-10T08:28:07;95141.44;;;1.09;100.00
19023;BME280;35226;48.606;8.858;2022-12-10T08:30:34;95145.34;;;1.08;100.00
19023;BME280;35226;48.606;8.858;2022-12-10T08:32:59;95145.78;;;1.06;100.00
19023;BME280;35226;48.606;8.858;2022-12-10T08:35:25;95154.22;;;1.12;100.00
19023;BME280;35226;48.606;8.858;2022-12-10T08:37:51;95153.47;;;1.11;100.00
19023;BME280;35226;48.606;8.858;2022-12-10T08:40:16;95161.16;;;1.17;100.00
19023;BME280;35226;48.606;8.858;2022-12-10T08:42:42;95155.03;;;1.09;100.00
19023;BME280;35226;48.606;8.858;2022-12-10T08:45:08;95146.94;;;1.05;100.00
19023;BME280;35226;48.606;8.858;2022-12-10T08:47:33;95146.44;;;1.14;100.00
19023;BME280;35226;48.606;8.858;2022-12-10T08:49:59;95148.38;;;1.14;100.00
19023;BME280;35226;48.606;8.858;2022-12-10T08:52:24;95150.34;;;1.13;100.00
19023;BME280;35226;48.606;8.858;2022-12-10T08:54:49;95163.19;;;1.09;100.00
19023;BME280;35226;48.606;8.858;2022-12-10T08:57:15;95155.28;;;1.18;100.00
19023;BME280;35226;48.606;8.858;2022-12-10T08:59:40;95163.81;;;1.20;100.00
19023;BME280;35226;48.606;8.858;2022-12-10T09:02:10;95174.31;;;1.22;100.00
19023;BME280;35226;48.606;8.858;2022-12-10T09:04:36;95185.53;;;1.24;100.00
19023;BME280;35226;48.606;8.858;2022-12-10T09:07:01;95178.09;;;1.28;100.00
19023;BME280;35226;48.606;8.858;2022-12-10T09:09:27;95182.47;;;1.22;100.00
19023;BME280;35226;48.606;8.858;2022-12-10T09:11:52;95182.78;;;1.27;100.00
19023;BME280;35226;48.606;8.858;2022-12-10T09:14:18;95181.28;;;1.23;100.00
19023;BME280;35226;48.606;8.858;2022-12-10T09:16:43;95182.78;;;1.27;100.00
19023;BME280;35226;48.606;8.858;2022-12-10T09:19:08;95186.97;;;1.32;100.00
19023;BME280;35226;48.606;8.858;2022-12-10T09:21:34;95196.03;;;1.25;100.00
19023;BME280;35226;48.606;8.858;2022-12-10T09:24:00;95192.94;;;1.23;100.00
19023;BME280;35226;48.606;8.858;2022-12-10T09:26:26;95201.88;;;1.24;100.00
19023;BME280;35226;48.606;8.858;2022-12-10T09:28:52;95213.94;;;1.23;100.00
19023;BME280;35226;48.606;8.858;2022-12-10T09:31:19;95209.63;;;1.25;100.00
19023;BME280;35226;48.606;8.858;2022-12-10T09:33:45;95213.47;;;1.28;100.00
19023;BME280;35226;48.606;8.858;2022-12-10T09:36:13;95213.19;;;0.88;100.00
19023;BME280;35226;48.606;8.858;2022-12-10T09:38:40;95210.13;;;1.17;100.00
19023;BME280;35226;48.606;8.858;2022-12-10T09:49:57;95201.34;;;1.32;100.00
19023;BME280;35226;48.606;8.858;2022-12-10T09:52:04;95205.66;;;1.30;100.00
19023;BME280;35226;48.606;8.858;2022-12-10T09:54:40;95197.41;;;1.37;100.00
19023;BME280;35226;48.606;8.858;2022-12-10T09:57:25;95199.00;;;1.34;100.00
19023;BME280;35226;48.606;8.858;2022-12-10T09:59:54;95197.47;;;1.33;100.00
19023;BME280;35226;48.606;8.858;2022-12-10T10:02:23;95205.63;;;1.33;100.00
19023;BME280;35226;48.606;8.858;2022-12-10T10:04:51;95198.28;;;1.30;100.00
19023;BME280;35226;48.606;8.858;2022-12-10T10:07:23;95194.59;;;1.44;100.00
19023;BME280;35226;48.606;8.858;2022-12-10T10:09:51;95194.34;;;1.35;100.00
19023;BME280;35226;48.606;8.858;2022-12-10T10:12:20;95193.41;;;1.45;100.00
19023;BME280;35226;48.606;8.858;2022-12-10T10:14:45;95192.13;;;1.53;100.00
19023;BME280;35226;48.606;8.858;2022-12-10T10:17:40;95201.91;;;1.47;100.00
19023;BME280;35226;48.606;8.858;2022-12-10T10:20:11;95196.22;;;1.38;100.00
19023;BME280;35226;48.606;8.858;2022-12-10T10:22:38;95192.81;;;1.30;100.00
19023;BME280;35226;48.606;8.858;2022-12-10T10:25:05;95191.31;;;0.99;100.00
19023;BME280;35226;48.606;8.858;2022-12-10T10:27:32;95186.84;;;0.85;100.00
19023;BME280;35226;48.606;8.858;2022-12-10T10:30:03;95195.81;;;1.39;100.00
19023;BME280;35226;48.606;8.858;2022-12-10T10:35:01;95201.91;;;1.47;100.00
19023;BME280;35226;48.606;8.858;2022-12-10T10:39:59;95206.38;;;1.07;100.00
19023;BME280;35226;48.606;8.858;2022-12-10T10:44:59;95214.38;;;1.18;100.00
19023;BME280;35226;48.606;8.858;2022-12-10T10:47:33;95213.69;;;1.40;100.00
19023;BME280;35226;48.606;8.858;2022-12-10T10:49:59;95217.88;;;1.18;100.00
19023;BME280;35226;48.606;8.858;2022-12-10T10:52:28;95215.63;;;1.67;100.00
19023;BME280;35226;48.606;8.858;2022-12-10T10:54:55;95218.19;;;1.51;100.00
19023;BME280;35226;48.606;8.858;2022-12-10T10:57:33;95215.03;;;1.56;100.00
19023;BME280;35226;48.606;8.858;2022-12-10T11:00:06;95211.94;;;1.54;100.00
19023;BME280;35226;48.606;8.858;2022-12-10T11:02:36;95213.53;;;1.51;100.00
19023;BME280;35226;48.606;8.858;2022-12-10T11:05:22;95219.34;;;0.96;100.00
19023;BME280;35226;48.606;8.858;2022-12-10T11:07:57;95221.56;;;1.04;100.00
19023;BME280;35226;48.606;8.858;2022-12-10T11:10:24;95214.53;;;1.07;100.00
19023;BME280;35226;48.606;8.858;2022-12-10T11:13:25;95219.97;;;1.07;100.00
19023;BME280;35226;48.606;8.858;2022-12-10T11:18:41;95222.72;;;1.03;100.00
19023;BME280;35226;48.606;8.858;2022-12-10T11:23:47;95224.78;;;1.26;100.00
19023;BME280;35226;48.606;8.858;2022-12-10T11:34:19;95216.78;;;1.12;100.00
19023;BME280;35226;48.606;8.858;2022-12-10T11:42:09;95208.53;;;1.19;100.00
19023;BME280;35226;48.606;8.858;2022-12-10T11:45:06;95213.06;;;1.29;100.00
19023;BME280;35226;48.606;8.858;2022-12-10T11:47:48;95210.44;;;1.22;100.00
19023;BME280;35226;48.606;8.858;2022-12-10T11:50:26;95215.09;;;1.22;100.00
19023;BME280;35226;48.606;8.858;2022-12-10T11:55:49;95224.72;;;1.30;100.00
19023;BME280;35226;48.606;8.858;2022-12-10T11:58:34;95216.53;;;1.30;100.00
19023;BME280;35226;48.606;8.858;2022-12-10T12:03:55;95239.81;;;1.34;100.00
19023;BME280;35226;48.606;8.858;2022-12-10T12:06:41;95249.47;;;1.39;100.00
19023;BME280;35226;48.606;8.858;2022-12-10T12:14:29;95245.75;;;1.26;100.00
19023;BME280;35226;48.606;8.858;2022-12-10T12:17:16;95248.53;;;1.22;100.00
19023;BME280;35226;48.606;8.858;2022-12-10T12:20:03;95244.75;;;1.13;100.00
19023;BME280;35226;48.606;8.858;2022-12-10T12:22:37;95246.31;;;1.14;100.00
19023;BME280;35226;48.606;8.858;2022-12-10T12:25:28;95242.63;;;1.27;100.00
19023;BME280;35226;48.606;8.858;2022-12-10T12:30:46;95263.25;;;1.25;100.00
19023;BME280;35226;48.606;8.858;2022-12-10T12:33:31;95259.09;;;1.17;100.00
19023;BME280;35226;48.606;8.858;2022-12-10T12:36:00;95269.72;;;1.92;100.00
19023;BME280;35226;48.606;8.858;2022-12-10T12:38:32;95270.31;;;2.03;100.00
19023;BME280;35226;48.606;8.858;2022-12-10T12:41:06;95272.22;;;2.06;100.00
19023;BME280;35226;48.606;8.858;2022-12-10T12:46:32;95273.25;;;2.15;100.00
19023;BME280;35226;48.606;8.858;2022-12-10T12:51:40;95273.34;;;2.08;100.00
19023;BME280;35226;48.606;8.858;2022-12-10T12:54:11;95280.28;;;1.59;100.00
19023;BME280;35226;48.606;8.858;2022-12-10T13:05:03;95276.81;;;1.85;100.00
19023;BME280;35226;48.606;8.858;2022-12-10T13:07:34;95279.00;;;1.40;100.00
19023;BME280;35226;48.606;8.858;2022-12-10T13:12:46;95283.50;;;1.81;100.00
19023;BME280;35226;48.606;8.858;2022-12-10T13:15:22;95281.97;;;1.76;100.00
19023;BME280;35226;48.606;8.858;2022-12-10T13:21:25;95282.81;;;1.73;100.00
19023;BME280;35226;48.606;8.858;2022-12-10T13:23:53;95283.75;;;1.90;100.00
19023;BME280;35226;48.606;8.858;2022-12-10T13:26:27;95281.56;;;1.78;100.00
19023;BME280;35226;48.606;8.858;2022-12-10T13:28:55;95293.19;;;1.82;100.00
19023;BME280;35226;48.606;8.858;2022-12-10T13:31:22;95297.53;;;1.19;100.00
19023;BME280;35226;48.606;8.858;2022-12-10T13:41:33;95319.03;;;1.70;100.00
19023;BME280;35226;48.606;8.858;2022-12-10T13:50:13;95332.34;;;1.65;100.00
19023;BME280;35226;48.606;8.858;2022-12-10T13:53:03;95326.91;;;1.65;100.00
19023;BME280;35226;48.606;8.858;2022-12-10T13:55:47;95341.72;;;1.60;100.00
19023;BME280;35226;48.606;8.858;2022-12-10T13:59:04;95344.06;;;1.58;100.00
19023;BME280;35226;48.606;8.858;2022-12-10T14:01:19;95345.31;;;1.54;100.00
19023;BME280;35226;48.606;8.858;2022-12-10T14:06:53;95358.56;;;1.52;100.00
19023;BME280;35226;48.606;8.858;2022-12-10T14:09:29;95357.13;;;1.40;100.00
19023;BME280;35226;48.606;8.858;2022-12-10T14:12:01;95355.22;;;1.03;100.00
19023;BME280;35226;48.606;8.858;2022-12-10T14:14:32;95361.94;;;0.91;100.00
19023;BME280;35226;48.606;8.858;2022-12-10T14:17:19;95364.94;;;1.00;100.00
19023;BME280;35226;48.606;8.858;2022-12-10T14:19:49;95358.03;;;0.92;100.00
19023;BME280;35226;48.606;8.858;2022-12-10T14:22:18;95362.28;;;0.97;100.00
19023;BME280;35226;48.606;8.858;2022-12-10T14:24:48;95365.13;;;0.83;100.00
19023;BME280;35226;48.606;8.858;2022-12-10T14:27:15;95363.50;;;0.89;100.00
19023;BME280;35226;48.606;8.858;2022-12-10T14:29:46;95373.59;;;0.88;100.00
19023;BME280;35226;48.606;8.858;2022-12-10T14:32:18;95373.59;;;0.92;100.00
19023;BME280;35226;48.606;8.858;2022-12-10T14:35:05;95383.84;;;0.73;100.00
19023;BME280;35226;48.606;8.858;2022-12-10T14:37:35;95379.47;;;0.87;100.00
19023;BME280;35226;48.606;8.858;2022-12-10T14:40:04;95388.75;;;0.89;100.00
19023;BME280;35226;48.606;8.858;2022-12-10T14:42:30;95386.81;;;0.90;100.00
19023;BME280;35226;48.606;8.858;2022-12-10T14:44:59;95387.94;;;0.92;100.00
19023;BME280;35226;48.606;8.858;2022-12-10T14:47:25;95396.94;;;0.86;100.00
19023;BME280;35226;48.606;8.858;2022-12-10T14:49:54;95391.16;;;0.80;100.00
19023;BME280;35226;48.606;8.858;2022-12-10T14:52:30;95398.06;;;0.92;100.00